createdAt,value
2019-01-13T00:00:03.084Z,2.52
2019-01-13T00:01:03.321Z,2.06
2019-01-13T00:02:03.288Z,2.27
2019-01-13T00:03:03.030Z,2.27
2019-01-13T00:04:02.826Z,2.31
2019-01-13T00:05:03.206Z,2.37
2019-01-13T00:06:02.642Z,2.07
2019-01-13T00:07:03.291Z,2.85
2019-01-13T00:08:02.648Z,1.93
2019-01-13T00:09:02.730Z,1.87
2019-01-13T00:10:04.140Z,2.39
2019-01-13T00:11:02.941Z,2.31
2019-01-13T00:12:03.466Z,2.31
2019-01-13T00:13:02.972Z,2.46
2019-01-13T00:14:03.325Z,2.12
2019-01-13T00:15:03.327Z,2.26
2019-01-13T00:16:03.173Z,3.58
2019-01-13T00:17:03.117Z,1.99
2019-01-13T00:18:02.618Z,2.51
2019-01-13T00:19:03.318Z,1.89
2019-01-13T00:20:02.652Z,1.94
2019-01-13T00:21:03.222Z,1.98
2019-01-13T00:22:02.613Z,2.62
2019-01-13T00:23:03.640Z,2.74
2019-01-13T00:24:03.550Z,2.91
2019-01-13T00:25:02.594Z,1.78
2019-01-13T00:26:03.588Z,1.78
2019-01-13T00:27:03.170Z,2.43
2019-01-13T00:28:02.703Z,2.04
2019-01-13T00:29:02.824Z,2.13
2019-01-13T00:30:01.541Z,1.8
2019-01-13T00:31:03.486Z,1.8
2019-01-13T00:32:02.504Z,4.04
2019-01-13T00:33:03.386Z,1.62
2019-01-13T00:34:02.907Z,2.76
2019-01-13T00:36:02.587Z,2.07
2019-01-13T00:37:02.836Z,1.98
2019-01-13T00:38:03.001Z,2.44
2019-01-13T00:39:03.019Z,2.12
2019-01-13T00:40:03.101Z,2.05
2019-01-13T00:41:02.453Z,1.71
2019-01-13T00:42:02.787Z,2.12
2019-01-13T00:43:03.508Z,1.86
2019-01-13T00:44:03.105Z,3.28
2019-01-13T00:45:02.768Z,1.82
2019-01-13T00:46:03.379Z,1.83
2019-01-13T00:47:03.236Z,3.17
2019-01-13T00:48:03.074Z,2.06
2019-01-13T00:49:02.653Z,2.38
2019-01-13T00:50:02.854Z,1.95
2019-01-13T00:51:02.859Z,1.95
2019-01-13T00:52:02.845Z,2.96
2019-01-13T00:53:02.946Z,1.52
2019-01-13T00:54:02.897Z,1.52
2019-01-13T00:55:02.742Z,1.61
2019-01-13T00:56:02.620Z,2.05
2019-01-13T00:57:02.924Z,2.22
2019-01-13T00:58:03.454Z,2.22
2019-01-13T00:59:03.231Z,1.69
2019-01-13T01:00:03.582Z,1.92
2019-01-13T01:01:02.740Z,1.82
2019-01-13T01:02:02.622Z,5.55
2019-01-13T01:03:03.362Z,2
2019-01-13T01:04:03.479Z,1.81
2019-01-13T01:05:03.282Z,2.29
2019-01-13T01:06:02.819Z,1.37
2019-01-13T01:07:03.134Z,2.67
2019-01-13T01:08:03.372Z,1.49
2019-01-13T01:09:03.197Z,2.6
2019-01-13T01:10:03.265Z,1.9
2019-01-13T01:11:03.130Z,1.75
2019-01-13T01:12:02.484Z,1.52
2019-01-13T01:13:03.292Z,1.44
2019-01-13T01:14:03.155Z,1.88
2019-01-13T01:15:02.626Z,2.05
2019-01-13T01:16:02.915Z,3.4
2019-01-13T01:17:03.216Z,1.58
2019-01-13T01:18:04.106Z,1.51
2019-01-13T01:19:03.424Z,1.64
2019-01-13T01:20:03.195Z,1.48
2019-01-13T01:21:03.404Z,4.75
2019-01-13T01:22:02.618Z,1.68
2019-01-13T01:23:02.917Z,1.58
2019-01-13T01:24:03.417Z,1.78
2019-01-13T01:25:03.353Z,2.58
2019-01-13T01:26:02.674Z,1.36
2019-01-13T01:27:02.724Z,1.6
2019-01-13T01:28:02.926Z,1.42
2019-01-13T01:29:03.204Z,2.2
2019-01-13T01:30:03.348Z,2.33
2019-01-13T01:31:03.235Z,1.69
2019-01-13T01:32:03.515Z,1.43
2019-01-13T01:33:02.664Z,2.03
2019-01-13T01:34:03.176Z,2.74
2019-01-13T01:35:03.251Z,1.51
2019-01-13T01:36:02.642Z,7.4
2019-01-13T01:37:03.364Z,7.4
2019-01-13T01:38:02.982Z,1.69
2019-01-13T01:39:02.952Z,2.49
2019-01-13T01:40:03.465Z,2.49
2019-01-13T01:41:03.448Z,1.51
2019-01-13T01:42:02.988Z,2.42
2019-01-13T01:43:03.060Z,2.42
2019-01-13T01:44:02.774Z,2.24
2019-01-13T01:45:02.868Z,1.81
2019-01-13T01:46:03.177Z,2.15
2019-01-13T01:47:03.778Z,1.87
2019-01-13T01:48:03.247Z,2.02
2019-01-13T01:49:02.344Z,1.59
2019-01-13T01:50:03.532Z,1.85
2019-01-13T01:51:02.810Z,1.52
2019-01-13T01:52:03.360Z,1.54
2019-01-13T01:53:03.317Z,2.43
2019-01-13T01:54:03.152Z,2.08
2019-01-13T01:55:03.133Z,1.74
2019-01-13T01:56:03.053Z,1.72
2019-01-13T01:57:03.342Z,2.06
2019-01-13T01:58:02.508Z,1.81
2019-01-13T01:59:03.345Z,1.59
2019-01-13T02:00:02.921Z,1.51
2019-01-13T02:01:02.617Z,1.7
2019-01-13T02:02:03.054Z,3.95
2019-01-13T02:03:03.074Z,2.3
2019-01-13T02:04:02.695Z,1.29
2019-01-13T02:05:03.268Z,1.59
2019-01-13T02:06:03.246Z,3.56
2019-01-13T02:07:02.870Z,2.41
2019-01-13T02:08:03.784Z,1.71
2019-01-13T02:09:02.888Z,5.18
2019-01-13T02:10:03.200Z,3.03
2019-01-13T02:11:03.255Z,1.8
2019-01-13T02:12:02.734Z,2.11
2019-01-13T02:13:02.888Z,1.6
2019-01-13T02:14:03.034Z,1.47
2019-01-13T02:15:02.861Z,1.72
2019-01-13T02:16:03.468Z,5.49
2019-01-13T02:17:03.302Z,1.36
2019-01-13T02:18:03.261Z,1.71
2019-01-13T02:19:02.847Z,1.61
2019-01-13T02:20:03.060Z,2.84
2019-01-13T02:21:03.645Z,1.38
2019-01-13T02:22:02.749Z,2.64
2019-01-13T02:23:03.586Z,1.45
2019-01-13T02:24:01.864Z,1.51
2019-01-13T02:25:03.471Z,1.87
2019-01-13T02:26:02.654Z,1.97
2019-01-13T02:27:02.818Z,1.59
2019-01-13T02:28:02.768Z,1.59
2019-01-13T02:29:02.873Z,1.57
2019-01-13T02:30:03.130Z,1.77
2019-01-13T02:31:03.627Z,1.69
2019-01-13T02:32:02.804Z,2.16
2019-01-13T02:33:03.208Z,1.79
2019-01-13T02:34:03.168Z,1.66
2019-01-13T02:35:03.016Z,1.76
2019-01-13T02:36:03.574Z,5.45
2019-01-13T02:37:03.123Z,2.85
2019-01-13T02:38:02.754Z,1.54
2019-01-13T02:39:03.063Z,1.46
2019-01-13T02:40:02.767Z,1.47
2019-01-13T02:41:03.562Z,1.54
2019-01-13T02:42:02.987Z,2.23
2019-01-13T02:43:02.840Z,2.61
2019-01-13T02:44:02.968Z,1.58
2019-01-13T02:45:03.125Z,1.58
2019-01-13T02:46:02.499Z,2.05
2019-01-13T02:47:03.663Z,1.39
2019-01-13T02:48:03.461Z,1.66
2019-01-13T02:49:02.740Z,1.46
2019-01-13T02:50:02.568Z,1.59
2019-01-13T02:51:02.760Z,1.19
2019-01-13T02:52:03.440Z,1.58
2019-01-13T02:53:03.322Z,1.34
2019-01-13T02:54:02.717Z,1.23
2019-01-13T02:55:03.045Z,2.12
2019-01-13T02:56:03.341Z,1.54
2019-01-13T02:57:03.554Z,0.95
2019-01-13T02:58:02.622Z,1.29
2019-01-13T02:59:02.694Z,1.12
2019-01-13T03:00:02.954Z,1.51
2019-01-13T03:01:02.999Z,1.25
2019-01-13T03:02:02.993Z,1.29
2019-01-13T03:03:03.369Z,1.34
2019-01-13T03:04:03.119Z,2.16
2019-01-13T03:05:03.296Z,1.15
2019-01-13T03:06:02.897Z,1.46
2019-01-13T03:07:03.106Z,1.12
2019-01-13T03:08:02.714Z,3.37
2019-01-13T03:09:03.126Z,1.37
2019-01-13T03:10:03.101Z,1.26
2019-01-13T03:11:02.672Z,1.27
2019-01-13T03:12:02.779Z,1.38
2019-01-13T03:13:03.408Z,1.51
2019-01-13T03:14:03.383Z,1.44
2019-01-13T03:15:03.399Z,1.86
2019-01-13T03:16:02.214Z,1.99
2019-01-13T03:17:02.581Z,1.99
2019-01-13T03:18:03.210Z,1.54
2019-01-13T03:19:02.550Z,1
2019-01-13T03:20:02.929Z,1
2019-01-13T03:21:03.219Z,1.84
2019-01-13T03:22:03.526Z,1.55
2019-01-13T03:23:02.985Z,1.79
2019-01-13T03:24:03.366Z,1.29
2019-01-13T03:25:03.252Z,1.22
2019-01-13T03:26:03.624Z,1.9
2019-01-13T03:27:02.947Z,1.44
2019-01-13T03:28:02.397Z,1.32
2019-01-13T03:29:02.884Z,1.48
2019-01-13T03:30:02.943Z,1.79
2019-01-13T03:31:11.019Z,1.24
2019-01-13T03:32:03.622Z,1.43
2019-01-13T03:33:03.502Z,1.93
2019-01-13T03:34:02.607Z,1.96
2019-01-13T03:35:02.897Z,1.61
2019-01-13T03:36:02.935Z,1.18
2019-01-13T03:37:02.878Z,1.38
2019-01-13T03:38:02.602Z,1.16
2019-01-13T03:39:02.555Z,1.55
2019-01-13T03:40:02.661Z,4.92
2019-01-13T03:41:03.210Z,1.27
2019-01-13T03:42:03.483Z,1.73
2019-01-13T03:43:03.121Z,1.62
2019-01-13T03:44:02.910Z,1.78
2019-01-13T03:45:03.271Z,1.48
2019-01-13T03:46:02.749Z,1.79
2019-01-13T03:47:03.215Z,2.19
2019-01-13T03:48:03.111Z,2.06
2019-01-13T03:49:03.354Z,2.21
2019-01-13T03:50:03.050Z,2.12
2019-01-13T03:51:03.149Z,2.45
2019-01-13T03:52:03.004Z,2.19
2019-01-13T03:53:02.648Z,2.33
2019-01-13T03:54:03.266Z,3.57
2019-01-13T03:55:03.221Z,1.98
2019-01-13T03:56:02.647Z,2.81
2019-01-13T03:57:03.435Z,2.58
2019-01-13T03:58:03.140Z,2.72
2019-01-13T03:59:02.815Z,3.39
2019-01-13T04:00:03.362Z,2.79
2019-01-13T04:01:02.761Z,2.79
2019-01-13T04:02:02.756Z,2.91
2019-01-13T04:03:02.824Z,3.1
2019-01-13T04:04:03.325Z,4.15
2019-01-13T04:05:02.984Z,3.19
2019-01-13T04:06:03.429Z,3.19
2019-01-13T04:07:03.479Z,3.06
2019-01-13T04:08:03.147Z,3.06
2019-01-13T04:09:02.979Z,3.21
2019-01-13T04:10:03.486Z,3.45
2019-01-13T04:11:03.026Z,2.88
2019-01-13T04:12:03.434Z,3.95
2019-01-13T04:13:02.820Z,4.06
2019-01-13T04:14:03.054Z,3.9
2019-01-13T04:15:03.606Z,4.38
2019-01-13T04:16:03.041Z,3.19
2019-01-13T04:17:03.108Z,3.02
2019-01-13T04:18:02.878Z,3.62
2019-01-13T04:19:02.523Z,3.61
2019-01-13T04:20:03.483Z,3.76
2019-01-13T04:21:02.516Z,3.66
2019-01-13T04:22:03.358Z,3.68
2019-01-13T04:23:02.457Z,3.16
2019-01-13T04:24:03.228Z,4.01
2019-01-13T04:25:02.620Z,3.66
2019-01-13T04:26:03.293Z,3.15
2019-01-13T04:27:03.240Z,3.58
2019-01-13T04:28:03.007Z,3.58
2019-01-13T04:29:03.034Z,3.12
2019-01-13T04:30:03.287Z,3.06
2019-01-13T04:31:02.593Z,3.06
2019-01-13T04:32:03.458Z,3.95
2019-01-13T04:33:02.771Z,2.79
2019-01-13T04:34:02.844Z,3.47
2019-01-13T04:35:03.429Z,3.59
2019-01-13T04:36:03.492Z,3.54
2019-01-13T04:37:02.993Z,3.71
2019-01-13T04:38:02.617Z,2.36
2019-01-13T04:39:03.004Z,2.97
2019-01-13T04:40:03.021Z,2.86
2019-01-13T04:41:03.193Z,5.87
2019-01-13T04:42:03.375Z,3.31
2019-01-13T04:43:02.696Z,2.54
2019-01-13T04:44:02.652Z,3.24
2019-01-13T04:45:02.775Z,2.99
2019-01-13T04:46:02.860Z,2.84
2019-01-13T04:47:03.350Z,2.84
2019-01-13T04:48:03.400Z,4.36
2019-01-13T04:49:02.867Z,4.36
2019-01-13T04:51:03.231Z,2.63
2019-01-13T04:52:03.201Z,2.93
2019-01-13T04:53:02.797Z,2.21
2019-01-13T04:54:02.916Z,2.21
2019-01-13T04:55:02.836Z,2.19
2019-01-13T04:56:03.432Z,2.25
2019-01-13T04:57:03.182Z,2.25
2019-01-13T04:58:02.803Z,6.87
2019-01-13T04:59:02.623Z,2.62
2019-01-13T05:00:03.100Z,3.15
2019-01-13T05:01:02.694Z,3.11
2019-01-13T05:02:03.261Z,2.2
2019-01-13T05:03:03.076Z,5.41
2019-01-13T05:04:02.691Z,2.24
2019-01-13T05:05:03.187Z,2.21
2019-01-13T05:06:03.557Z,2.79
2019-01-13T05:07:02.998Z,2.2
2019-01-13T05:08:03.410Z,2.68
2019-01-13T05:09:02.761Z,2.29
2019-01-13T05:10:03.630Z,2.19
2019-01-13T05:11:03.022Z,2.68
2019-01-13T05:12:03.356Z,2.44
2019-01-13T05:13:02.410Z,2.48
2019-01-13T05:14:02.848Z,2.47
2019-01-13T05:15:03.217Z,2.41
2019-01-13T05:16:02.651Z,2.91
2019-01-13T05:17:02.538Z,2.54
2019-01-13T05:18:02.768Z,3.69
2019-01-13T05:19:03.563Z,2.17
2019-01-13T05:20:03.140Z,2.75
2019-01-13T05:21:02.888Z,2.42
2019-01-13T05:22:03.017Z,2.22
2019-01-13T05:23:03.100Z,3.08
2019-01-13T05:24:02.487Z,2.43
2019-01-13T05:25:03.533Z,2.58
2019-01-13T05:26:03.591Z,2.58
2019-01-13T05:27:03.464Z,3.67
2019-01-13T05:28:03.327Z,4.74
2019-01-13T05:29:03.404Z,2.75
2019-01-13T05:30:02.705Z,3.49
2019-01-13T05:31:03.542Z,2.71
2019-01-13T05:32:03.274Z,2.96
2019-01-13T05:33:02.637Z,3.09
2019-01-13T05:34:02.633Z,2.31
2019-01-13T05:35:03.378Z,5.93
2019-01-13T05:36:02.640Z,4.3
2019-01-13T05:37:03.482Z,2.87
2019-01-13T05:38:02.605Z,3.45
2019-01-13T05:39:02.813Z,9.04
2019-01-13T05:40:03.135Z,2.97
2019-01-13T05:41:02.806Z,3.8
2019-01-13T05:42:03.000Z,4.02
2019-01-13T05:43:03.425Z,4.02
2019-01-13T05:44:02.702Z,3.79
2019-01-13T05:45:03.481Z,3.79
2019-01-13T05:46:02.850Z,3.81
2019-01-13T05:47:03.317Z,3.54
2019-01-13T05:48:02.576Z,3.68
2019-01-13T05:49:03.353Z,3.39
2019-01-13T05:50:03.112Z,4.72
2019-01-13T05:51:03.030Z,5.79
2019-01-13T05:52:02.789Z,5.63
2019-01-13T05:53:02.563Z,4.74
2019-01-13T05:54:02.620Z,5.86
2019-01-13T05:55:03.413Z,4.8
2019-01-13T05:56:03.044Z,5.94
2019-01-13T05:57:03.045Z,7.86
2019-01-13T05:58:03.389Z,5.19
2019-01-13T05:59:02.638Z,5.46
2019-01-13T06:00:03.093Z,6.94
2019-01-13T06:01:03.480Z,9.31
2019-01-13T06:02:03.113Z,7.06
2019-01-13T06:03:02.535Z,6.01
2019-01-13T06:04:03.234Z,5.7
2019-01-13T06:05:03.638Z,6.88
2019-01-13T06:06:03.269Z,7.27
2019-01-13T06:07:02.779Z,6.35
2019-01-13T06:08:03.526Z,7.06
2019-01-13T06:09:02.999Z,5.97
2019-01-13T06:10:02.856Z,7.38
2019-01-13T06:11:03.225Z,7.61
2019-01-13T06:12:03.489Z,7.37
2019-01-13T06:13:03.474Z,7.65
2019-01-13T06:14:02.813Z,6.74
2019-01-13T06:15:02.895Z,6.04
2019-01-13T06:16:03.368Z,5.76
2019-01-13T06:17:02.560Z,7.66
2019-01-13T06:18:03.256Z,6.64
2019-01-13T06:19:02.941Z,6.62
2019-01-13T06:20:03.269Z,6.39
2019-01-13T06:21:02.781Z,6.71
2019-01-13T06:22:03.292Z,7.43
2019-01-13T06:23:03.275Z,6.29
2019-01-13T06:24:02.940Z,9.53
2019-01-13T06:25:02.887Z,7.22
2019-01-13T06:26:03.035Z,6.56
2019-01-13T06:27:02.818Z,5.51
2019-01-13T06:28:02.884Z,9.98
2019-01-13T06:29:02.741Z,6.21
2019-01-13T06:30:03.066Z,6.21
2019-01-13T06:31:02.905Z,5.22
2019-01-13T06:32:02.954Z,7.4
2019-01-13T06:33:02.851Z,7.4
2019-01-13T06:34:02.897Z,7.18
2019-01-13T06:35:02.581Z,6.87
2019-01-13T06:36:03.388Z,7.32
2019-01-13T06:37:03.099Z,6.22
2019-01-13T06:38:03.791Z,6.22
2019-01-13T06:39:03.274Z,5.43
2019-01-13T06:40:03.121Z,6.02
2019-01-13T06:41:03.107Z,6.68
2019-01-13T06:42:02.928Z,8.89
2019-01-13T06:43:03.186Z,6.04
2019-01-13T06:44:03.080Z,6.45
2019-01-13T06:45:03.123Z,6.68
2019-01-13T06:46:02.606Z,6.68
2019-01-13T06:47:02.597Z,6.16
2019-01-13T06:48:03.464Z,6.16
2019-01-13T06:49:02.665Z,6.16
2019-01-13T06:50:03.130Z,7.83
2019-01-13T06:51:02.780Z,5.88
2019-01-13T06:52:02.833Z,8.43
2019-01-13T06:53:03.575Z,7.11
2019-01-13T06:54:02.629Z,8.28
2019-01-13T06:55:02.960Z,6.48
2019-01-13T06:56:02.925Z,7.15
2019-01-13T06:57:03.051Z,7.66
2019-01-13T06:58:02.878Z,8.02
2019-01-13T06:59:02.864Z,6.3
2019-01-13T07:00:03.402Z,8.26
2019-01-13T07:01:03.007Z,10.37
2019-01-13T07:02:03.410Z,9.51
2019-01-13T07:03:02.943Z,10.69
2019-01-13T07:04:02.698Z,9.04
2019-01-13T07:05:03.430Z,7.36
2019-01-13T07:06:03.258Z,7.44
2019-01-13T07:07:02.594Z,7.37
2019-01-13T07:08:03.119Z,8.19
2019-01-13T07:09:02.543Z,8.35
2019-01-13T07:10:02.845Z,10.97
2019-01-13T07:11:02.987Z,9.11
2019-01-13T07:12:02.940Z,8.3
2019-01-13T07:13:02.787Z,9.31
2019-01-13T07:14:03.321Z,10.22
2019-01-13T07:15:03.620Z,10.42
2019-01-13T07:16:03.511Z,10.95
2019-01-13T07:17:03.310Z,11.69
2019-01-13T07:18:03.338Z,12.73
2019-01-13T07:19:03.741Z,10.04
2019-01-13T07:20:03.624Z,10.04
2019-01-13T07:21:02.593Z,10.04
2019-01-13T07:22:03.306Z,14.53
2019-01-13T07:23:02.528Z,16.45
2019-01-13T07:24:03.385Z,17.56
2019-01-13T07:25:03.305Z,24.92
2019-01-13T07:26:02.417Z,26.52
2019-01-13T07:27:03.538Z,17.06
2019-01-13T07:28:02.708Z,13.94
2019-01-13T07:29:03.363Z,9.82
2019-01-13T07:30:02.828Z,9.59
2019-01-13T07:31:03.125Z,9.62
2019-01-13T07:32:02.966Z,9.66
2019-01-13T07:33:02.804Z,8.89
2019-01-13T07:34:03.545Z,12.68
2019-01-13T07:35:03.029Z,8.85
2019-01-13T07:36:01.631Z,10.38
2019-01-13T07:37:02.678Z,8.73
2019-01-13T07:38:02.944Z,13.94
2019-01-13T07:39:03.522Z,8.89
2019-01-13T07:40:02.815Z,11.47
2019-01-13T07:41:03.558Z,11.54
2019-01-13T07:42:02.493Z,12.54
2019-01-13T07:43:03.333Z,13.29
2019-01-13T07:44:03.531Z,10.52
2019-01-13T07:45:02.855Z,8.84
2019-01-13T07:46:03.429Z,10.99
2019-01-13T07:47:03.345Z,10.05
2019-01-13T07:48:03.027Z,8.78
2019-01-13T07:49:03.236Z,8.84
2019-01-13T07:50:03.381Z,9.81
2019-01-13T07:51:02.868Z,8.15
2019-01-13T07:52:02.849Z,13.94
2019-01-13T07:53:02.594Z,15.79
2019-01-13T07:54:03.689Z,13.21
2019-01-13T07:55:02.731Z,13.2
2019-01-13T07:56:02.793Z,16.21
2019-01-13T07:57:02.576Z,12.96
2019-01-13T07:58:03.802Z,13.02
2019-01-13T07:59:02.713Z,15.37
2019-01-13T08:00:02.990Z,12.67
2019-01-13T08:01:03.657Z,12.21
2019-01-13T08:02:02.992Z,9.35
2019-01-13T08:03:02.660Z,9.59
2019-01-13T08:04:03.092Z,8.17
2019-01-13T08:05:03.209Z,10.96
2019-01-13T08:06:02.623Z,10.57
2019-01-13T08:07:03.372Z,10.57
2019-01-13T08:08:03.120Z,10.07
2019-01-13T08:09:02.875Z,8.47
2019-01-13T08:10:03.391Z,8.47
2019-01-13T08:11:03.429Z,8.38
2019-01-13T08:12:03.006Z,8.81
2019-01-13T08:13:03.305Z,8.79
2019-01-13T08:14:03.182Z,9.56
2019-01-13T08:15:03.244Z,8.16
2019-01-13T08:16:02.836Z,9.07
2019-01-13T08:17:02.680Z,8.63
2019-01-13T08:18:02.676Z,8.23
2019-01-13T08:19:02.806Z,8.48
2019-01-13T08:20:02.951Z,8.05
2019-01-13T08:21:02.985Z,8.21
2019-01-13T08:22:03.313Z,10.34
2019-01-13T08:23:02.081Z,9.46
2019-01-13T08:24:03.109Z,9.7
2019-01-13T08:25:03.358Z,7.81
2019-01-13T08:26:03.137Z,8.28
2019-01-13T08:27:03.200Z,7.55
2019-01-13T08:28:02.711Z,9.82
2019-01-13T08:29:02.884Z,11.44
2019-01-13T08:30:03.622Z,10.98
2019-01-13T08:31:03.318Z,10.31
2019-01-13T08:32:02.777Z,8.78
2019-01-13T08:33:03.374Z,11.18
2019-01-13T08:34:03.114Z,18.94
2019-01-13T08:35:02.761Z,14.68
2019-01-13T08:36:02.672Z,11.56
2019-01-13T08:37:03.504Z,11.32
2019-01-13T08:38:02.642Z,11.93
2019-01-13T08:39:02.792Z,11.19
2019-01-13T08:40:03.762Z,11.9
2019-01-13T08:41:02.794Z,13.52
2019-01-13T08:42:03.474Z,13.18
2019-01-13T08:43:03.092Z,13.22
2019-01-13T08:44:03.364Z,13.28
2019-01-13T08:45:03.170Z,14.06
2019-01-13T08:46:02.656Z,9.29
2019-01-13T08:47:03.524Z,10.64
2019-01-13T08:48:02.786Z,7.66
2019-01-13T08:49:02.878Z,7
2019-01-13T08:50:03.573Z,9.62
2019-01-13T08:51:03.008Z,8.01
2019-01-13T08:52:02.789Z,7.92
2019-01-13T08:53:03.323Z,8.47
2019-01-13T08:54:03.455Z,8.08
2019-01-13T08:55:03.593Z,7.79
2019-01-13T08:56:03.068Z,7.79
2019-01-13T08:57:02.930Z,7.49
2019-01-13T08:58:03.606Z,7.9
2019-01-13T08:59:02.694Z,7.9
2019-01-13T09:00:02.646Z,8.72
2019-01-13T09:01:03.425Z,8.66
2019-01-13T09:02:03.298Z,9.91
2019-01-13T09:03:02.591Z,7.29
2019-01-13T09:04:03.290Z,7.62
2019-01-13T09:05:02.951Z,7.26
2019-01-13T09:06:02.563Z,8.45
2019-01-13T09:07:03.170Z,5.78
2019-01-13T09:08:03.093Z,9.78
2019-01-13T09:09:03.450Z,11.46
2019-01-13T09:10:02.951Z,7.24
2019-01-13T09:11:03.256Z,7.01
2019-01-13T09:12:02.794Z,6.01
2019-01-13T09:13:02.698Z,7.18
2019-01-13T09:14:03.159Z,6.61
2019-01-13T09:15:03.197Z,7.74
2019-01-13T09:16:03.082Z,6.99
2019-01-13T09:17:03.435Z,10.16
2019-01-13T09:18:03.418Z,9.58
2019-01-13T09:19:02.917Z,6.69
2019-01-13T09:20:02.973Z,8.02
2019-01-13T09:21:02.738Z,11.09
2019-01-13T09:22:03.050Z,12.7
2019-01-13T09:23:02.984Z,12.49
2019-01-13T09:24:02.773Z,9.11
2019-01-13T09:25:03.485Z,8.23
2019-01-13T09:26:02.756Z,8.23
2019-01-13T09:27:02.827Z,9.32
2019-01-13T09:28:03.550Z,9.89
2019-01-13T09:29:02.586Z,10.05
2019-01-13T09:30:02.843Z,12.66
2019-01-13T09:31:02.776Z,8.94
2019-01-13T09:32:02.904Z,14.59
2019-01-13T09:33:02.943Z,6.35
2019-01-13T09:34:03.264Z,9.52
2019-01-13T09:35:03.445Z,7.31
2019-01-13T09:36:02.885Z,8.58
2019-01-13T09:37:02.957Z,7.85
2019-01-13T09:38:02.831Z,8.58
2019-01-13T09:39:03.138Z,7.66
2019-01-13T09:40:03.043Z,11.21
2019-01-13T09:41:03.075Z,7.43
2019-01-13T09:42:02.748Z,6.71
2019-01-13T09:43:03.005Z,8.17
2019-01-13T09:44:03.174Z,8.17
2019-01-13T09:45:02.643Z,6.81
2019-01-13T09:46:02.611Z,10.74
2019-01-13T09:47:02.555Z,10.74
2019-01-13T09:48:03.446Z,9.19
2019-01-13T09:49:03.129Z,8.38
2019-01-13T09:50:03.326Z,7.22
2019-01-13T09:51:03.661Z,5.12
2019-01-13T09:52:03.051Z,5.25
2019-01-13T09:53:03.511Z,7.74
2019-01-13T09:54:02.806Z,7.74
2019-01-13T09:55:02.768Z,5.2
2019-01-13T09:56:03.252Z,5.34
2019-01-13T09:57:02.776Z,5.85
2019-01-13T09:58:02.840Z,4.75
2019-01-13T09:59:02.944Z,5.07
2019-01-13T10:00:02.668Z,5.64
2019-01-13T10:01:03.098Z,5.42
2019-01-13T10:02:02.716Z,5.62
2019-01-13T10:03:03.196Z,6.21
2019-01-13T10:04:03.514Z,10.88
2019-01-13T10:05:03.320Z,9.19
2019-01-13T10:06:03.078Z,6.98
2019-01-13T10:07:03.298Z,5.9
2019-01-13T10:08:02.644Z,6.08
2019-01-13T10:09:02.786Z,6.91
2019-01-13T10:10:03.320Z,7.75
2019-01-13T10:11:02.717Z,6.52
2019-01-13T10:12:03.030Z,9.04
2019-01-13T10:13:03.498Z,7.53
2019-01-13T10:14:02.672Z,8.86
2019-01-13T10:15:02.665Z,7.67
2019-01-13T10:16:03.484Z,12.54
2019-01-13T10:17:02.931Z,15.73
2019-01-13T10:18:03.295Z,9.74
2019-01-13T10:19:03.002Z,5.04
2019-01-13T10:20:03.497Z,5.48
2019-01-13T10:21:02.921Z,6.09
2019-01-13T10:22:02.743Z,6.02
2019-01-13T10:23:03.314Z,7.46
2019-01-13T10:24:03.498Z,6.1
2019-01-13T10:25:03.258Z,6.64
2019-01-13T10:26:02.695Z,6.29
2019-01-13T10:27:03.143Z,5.11
2019-01-13T10:28:03.389Z,6.14
2019-01-13T10:29:03.098Z,4.46
2019-01-13T10:30:02.766Z,5.08
2019-01-13T10:31:03.615Z,5.83
2019-01-13T10:32:02.824Z,5.83
2019-01-13T10:33:03.076Z,4.78
2019-01-13T10:34:03.217Z,5.49
2019-01-13T10:35:02.891Z,5.49
2019-01-13T10:36:03.548Z,4.45
2019-01-13T10:37:03.334Z,7.72
2019-01-13T10:38:03.448Z,7.72
2019-01-13T10:39:02.446Z,4.58
2019-01-13T10:40:03.531Z,5.52
2019-01-13T10:41:03.162Z,5.52
2019-01-13T10:42:03.357Z,5.71
2019-01-13T10:43:02.849Z,5.08
2019-01-13T10:44:02.785Z,5.18
2019-01-13T10:45:03.191Z,7.36
2019-01-13T10:46:03.185Z,9.53
2019-01-13T10:47:03.296Z,7.73
2019-01-13T10:48:02.748Z,4.95
2019-01-13T10:49:02.993Z,5.42
2019-01-13T10:50:02.864Z,7.91
2019-01-13T10:51:03.535Z,6.98
2019-01-13T10:52:02.681Z,6.2
2019-01-13T10:53:02.622Z,4.98
2019-01-13T10:54:09.043Z,7.44
2019-01-13T10:55:03.267Z,6.2
2019-01-13T10:56:03.497Z,5.45
2019-01-13T10:57:02.602Z,5.98
2019-01-13T10:58:02.897Z,5.54
2019-01-13T10:59:03.315Z,6.39
2019-01-13T11:00:02.928Z,4.54
2019-01-13T11:01:03.263Z,5.57
2019-01-13T11:02:03.048Z,4.91
2019-01-13T11:03:03.504Z,4
2019-01-13T11:04:01.776Z,4
2019-01-13T11:05:02.960Z,4.68
2019-01-13T11:06:03.465Z,4.19
2019-01-13T11:07:02.606Z,4.53
2019-01-13T11:08:02.182Z,3.1
2019-01-13T11:09:03.340Z,3.71
2019-01-13T11:10:03.372Z,4.14
2019-01-13T11:11:03.249Z,3.05
2019-01-13T11:12:03.552Z,2.86
2019-01-13T11:13:03.427Z,2.71
2019-01-13T11:14:03.042Z,3.31
2019-01-13T11:15:03.276Z,2.96
2019-01-13T11:16:03.190Z,3.12
2019-01-13T11:17:01.780Z,3.12
2019-01-13T11:18:02.660Z,3.83
2019-01-13T11:19:03.329Z,3.11
2019-01-13T11:20:03.056Z,3.11
2019-01-13T11:21:03.222Z,3.29
2019-01-13T11:22:03.488Z,2.88
2019-01-13T11:23:02.825Z,3.38
2019-01-13T11:24:02.704Z,3.5
2019-01-13T11:25:03.661Z,3.56
2019-01-13T11:26:03.632Z,3.88
2019-01-13T11:27:03.271Z,2.41
2019-01-13T11:28:03.105Z,3.74
2019-01-13T11:29:03.863Z,3.28
2019-01-13T11:30:03.457Z,3.69
2019-01-13T11:31:03.162Z,4.33
2019-01-13T11:32:02.554Z,2.94
2019-01-13T11:33:09.279Z,3.69
2019-01-13T11:34:03.126Z,5.76
2019-01-13T11:35:02.870Z,2.96
2019-01-13T11:36:03.240Z,3.52
2019-01-13T11:37:03.239Z,3.79
2019-01-13T11:38:03.032Z,2.44
2019-01-13T11:39:03.508Z,4.3
2019-01-13T11:40:02.820Z,2.83
2019-01-13T11:41:02.902Z,4.29
2019-01-13T11:42:03.094Z,2.74
2019-01-13T11:43:03.220Z,2.26
2019-01-13T11:44:02.770Z,2.45
2019-01-13T11:45:02.974Z,3.65
2019-01-13T11:46:02.714Z,2.99
2019-01-13T11:47:03.625Z,3.43
2019-01-13T11:48:03.391Z,7.99
2019-01-13T11:49:03.498Z,3.08
2019-01-13T11:50:02.705Z,3.19
2019-01-13T11:51:03.788Z,2.17
2019-01-13T11:52:02.699Z,2.53
2019-01-13T11:53:03.582Z,2.47
2019-01-13T11:54:03.279Z,2.36
2019-01-13T11:55:03.114Z,2.22
2019-01-13T11:56:03.241Z,3.09
2019-01-13T11:57:03.050Z,2.61
2019-01-13T11:58:03.075Z,2.65
2019-01-13T11:59:03.538Z,1.74
2019-01-13T12:00:02.916Z,2.58
2019-01-13T12:01:03.012Z,4.82
2019-01-13T12:02:03.041Z,2.65
2019-01-13T12:03:06.680Z,1.32
2019-01-13T12:04:03.458Z,4.49
2019-01-13T12:05:03.160Z,2.48
2019-01-13T12:06:03.371Z,2.34
2019-01-13T12:07:02.983Z,2.34
2019-01-13T12:08:03.603Z,1.75
2019-01-13T12:09:03.390Z,1.75
2019-01-13T12:10:03.622Z,3.51
2019-01-13T12:11:03.369Z,2.18
2019-01-13T12:12:02.596Z,1.31
2019-01-13T12:13:03.000Z,1.87
2019-01-13T12:14:02.785Z,1.38
2019-01-13T12:15:03.617Z,1.29
2019-01-13T12:16:03.033Z,1.35
2019-01-13T12:17:03.354Z,2.82
2019-01-13T12:18:03.131Z,2.25
2019-01-13T12:19:03.549Z,1.38
2019-01-13T12:20:02.641Z,1.55
2019-01-13T12:21:02.849Z,1.28
2019-01-13T12:22:03.309Z,1.19
2019-01-13T12:23:02.625Z,1.68
2019-01-13T12:24:02.662Z,1.42
2019-01-13T12:25:03.342Z,1.98
2019-01-13T12:26:03.612Z,1.98
2019-01-13T12:27:02.935Z,1.22
2019-01-13T12:28:02.956Z,1.68
2019-01-13T12:29:02.875Z,1.64
2019-01-13T12:30:02.867Z,1.64
2019-01-13T12:31:03.082Z,1.28
2019-01-13T12:32:03.407Z,1.59
2019-01-13T12:33:03.126Z,1.92
2019-01-13T12:34:02.345Z,1.92
2019-01-13T12:35:02.673Z,2.58
2019-01-13T12:36:03.503Z,1.91
2019-01-13T12:37:03.366Z,1.71
2019-01-13T12:38:03.346Z,1.71
2019-01-13T12:39:02.758Z,1.45
2019-01-13T12:40:03.409Z,1.43
2019-01-13T12:41:02.758Z,1.76
2019-01-13T12:42:03.409Z,1.76
2019-01-13T12:43:03.508Z,2.11
2019-01-13T12:44:03.152Z,1.69
2019-01-13T12:45:02.702Z,1.69
2019-01-13T12:46:02.648Z,2.11
2019-01-13T12:47:03.301Z,2.93
2019-01-13T12:48:02.766Z,3.19
2019-01-13T12:49:03.517Z,3
2019-01-13T12:50:03.097Z,3
2019-01-13T12:51:03.517Z,2.53
2019-01-13T12:52:02.455Z,2.62
2019-01-13T12:53:03.148Z,2.15
2019-01-13T12:54:03.329Z,2.15
2019-01-13T12:55:03.285Z,2.1
2019-01-13T12:56:02.948Z,2.36
2019-01-13T12:57:03.390Z,2.36
2019-01-13T12:58:03.049Z,2.13
2019-01-13T12:59:03.276Z,2.84
2019-01-13T13:00:03.452Z,1.5
2019-01-13T13:01:03.130Z,1.5
2019-01-13T13:02:02.816Z,3.77
2019-01-13T13:03:02.983Z,1.76
2019-01-13T13:04:03.248Z,2.25
2019-01-13T13:05:03.188Z,2.25
2019-01-13T13:06:03.147Z,2.99
2019-01-13T13:07:03.157Z,1.79
2019-01-13T13:08:02.965Z,1.86
2019-01-13T13:09:02.804Z,3.55
2019-01-13T13:10:02.613Z,2.65
2019-01-13T13:11:03.457Z,1.69
2019-01-13T13:12:02.793Z,3.74
2019-01-13T13:13:03.372Z,2.72
2019-01-13T13:14:03.602Z,1.86
2019-01-13T13:15:03.459Z,1.34
2019-01-13T13:16:03.254Z,1.19
2019-01-13T13:17:02.774Z,1.44
2019-01-13T13:18:02.761Z,1.45
2019-01-13T13:19:03.102Z,2.26
2019-01-13T13:20:03.091Z,1.74